createdAt,value
2023-03-21T00:00:25.391Z,50.00
2023-03-21T00:01:26.957Z,49.00
2023-03-21T00:02:28.513Z,48.00
2023-03-21T00:03:32.081Z,47.83
2023-03-21T00:04:48.548Z,46.50
2023-03-21T00:05:53.586Z,45.00
2023-03-21T00:06:55.365Z,43.00
2023-03-21T00:07:56.962Z,43.00
2023-03-21T00:08:58.600Z,42.67
2023-03-21T00:11:21.662Z,41.00
2023-03-21T00:12:23.259Z,40.33
2023-03-21T00:13:26.377Z,41.00
2023-03-21T00:14:29.113Z,41.00
2023-03-21T00:15:39.915Z,40.50
2023-03-21T00:16:44.415Z,39.33
2023-03-21T00:17:46.135Z,39.00
2023-03-21T00:18:49.635Z,38.67
2023-03-21T00:19:54.097Z,37.17
2023-03-21T00:21:15.751Z,36.00
2023-03-21T00:22:19.309Z,35.00
2023-03-21T00:23:20.871Z,35.67
2023-03-21T00:24:23.425Z,36.00
2023-03-21T00:25:25.054Z,35.67
2023-03-21T00:26:26.954Z,35.00
2023-03-21T00:27:49.966Z,35.00
2023-03-21T00:28:51.162Z,36.00
2023-03-21T00:29:53.432Z,36.00
2023-03-21T00:31:01.098Z,36.00
2023-03-21T00:32:02.633Z,36.67
2023-03-21T00:33:15.835Z,37.00
2023-03-21T00:34:32.055Z,38.00
2023-03-21T00:35:58.386Z,39.33
2023-03-21T00:37:06.316Z,40.67
2023-03-21T00:38:07.869Z,41.17
2023-03-21T00:39:09.465Z,42.00
2023-03-21T00:40:23.155Z,42.00
2023-03-21T00:41:41.385Z,41.00
2023-03-21T00:42:43.871Z,41.00
2023-03-21T00:43:45.473Z,41.00
2023-03-21T00:44:47.030Z,41.00
2023-03-21T00:45:50.103Z,41.00
2023-03-21T00:47:06.262Z,41.33
2023-03-21T00:48:08.894Z,42.00
2023-03-21T00:49:10.478Z,42.67
2023-03-21T00:50:12.098Z,43.83
2023-03-21T00:51:22.523Z,45.50
2023-03-21T00:52:34.393Z,46.00
2023-03-21T00:53:42.686Z,46.00
2023-03-21T00:54:44.427Z,45.33
2023-03-21T00:55:46.381Z,43.83
2023-03-21T00:56:47.954Z,42.50
2023-03-21T00:57:56.280Z,42.00
2023-03-21T00:59:03.010Z,42.00
2023-03-21T01:00:05.016Z,42.00
2023-03-21T01:01:06.815Z,42.00
2023-03-21T01:02:08.433Z,42.00
2023-03-21T01:03:23.612Z,41.83
2023-03-21T01:04:27.686Z,40.50
2023-03-21T01:05:30.964Z,39.33
2023-03-21T01:06:37.248Z,37.17
2023-03-21T01:07:38.769Z,34.83
2023-03-21T01:08:52.541Z,33.33
2023-03-21T01:09:54.833Z,32.00
2023-03-21T01:10:57.236Z,31.50
2023-03-21T01:11:58.881Z,31.33
2023-03-21T01:13:00.442Z,32.00
2023-03-21T01:14:18.700Z,32.17
2023-03-21T01:15:23.406Z,33.00
2023-03-21T01:16:25.448Z,33.00
2023-03-21T01:17:27.041Z,33.00
2023-03-21T01:18:30.060Z,33.83
2023-03-21T01:19:48.373Z,36.83
2023-03-21T01:20:52.391Z,38.17
2023-03-21T01:21:54.649Z,38.67
2023-03-21T01:22:56.226Z,38.00
2023-03-21T01:23:57.784Z,38.00
2023-03-21T01:25:12.078Z,38.00
2023-03-21T01:26:21.464Z,39.00
2023-03-21T01:27:23.062Z,39.17
2023-03-21T01:28:28.941Z,41.50
2023-03-21T01:29:30.496Z,41.33
2023-03-21T01:30:36.926Z,41.00
2023-03-21T01:31:43.523Z,40.17
2023-03-21T01:32:45.085Z,40.00
2023-03-21T01:33:47.173Z,40.00
2023-03-21T01:34:48.792Z,40.00
2023-03-21T01:35:57.643Z,39.50
2023-03-21T01:37:08.094Z,39.00
2023-03-21T01:38:10.546Z,39.00
2023-03-21T01:39:12.077Z,38.17
2023-03-21T01:40:24.190Z,37.33
2023-03-21T01:41:42.123Z,37.00
2023-03-21T01:42:44.369Z,37.00
2023-03-21T01:43:46.654Z,37.00
2023-03-21T01:45:34.092Z,37.50
2023-03-21T01:46:56.996Z,40.00
2023-03-21T01:48:05.519Z,41.67
2023-03-21T01:49:24.840Z,43.00
2023-03-21T01:50:27.255Z,43.83
2023-03-21T01:51:33.024Z,43.33
2023-03-21T01:52:38.741Z,43.00
2023-03-21T01:53:41.901Z,43.00
2023-03-21T01:54:46.232Z,43.50
2023-03-21T01:55:49.097Z,45.83
2023-03-21T01:56:53.733Z,46.67
2023-03-21T01:58:05.747Z,47.00
2023-03-21T01:59:47.557Z,47.00
2023-03-21T02:00:51.784Z,48.67
2023-03-21T02:01:53.455Z,50.00
2023-03-21T02:03:00.488Z,50.00
2023-03-21T02:04:04.931Z,50.00
2023-03-21T02:05:06.790Z,50.00
2023-03-21T02:06:41.932Z,49.67
2023-03-21T02:07:43.712Z,51.67
2023-03-21T02:08:45.284Z,53.00
2023-03-21T02:09:49.979Z,52.83
2023-03-21T02:10:51.869Z,56.00
2023-03-21T02:11:54.564Z,60.83
2023-03-21T02:13:02.299Z,63.17
2023-03-21T02:14:06.720Z,64.83
2023-03-21T02:15:10.427Z,64.33
2023-03-21T02:16:28.781Z,63.33
2023-03-21T02:17:45.081Z,63.00
2023-03-21T02:18:46.588Z,62.83
2023-03-21T02:20:17.563Z,62.50
2023-03-21T02:21:49.585Z,63.17
2023-03-21T02:23:06.278Z,63.33
2023-03-21T02:25:10.791Z,62.67
2023-03-21T02:26:52.476Z,60.83
2023-03-21T02:28:12.095Z,60.00
2023-03-21T02:29:28.740Z,59.83
2023-03-21T02:30:55.951Z,59.00
2023-03-21T02:32:20.265Z,58.33
2023-03-21T02:33:37.856Z,58.00
2023-03-21T02:35:02.089Z,58.00
2023-03-21T02:36:15.589Z,58.00
2023-03-21T02:37:38.440Z,57.33
2023-03-21T02:38:49.348Z,56.50
2023-03-21T02:40:06.654Z,55.00
2023-03-21T02:41:45.593Z,53.17
2023-03-21T02:43:00.049Z,51.50
2023-03-21T02:44:25.528Z,50.00
2023-03-21T02:45:36.140Z,50.00
2023-03-21T02:46:49.042Z,51.00
2023-03-21T02:48:23.793Z,52.67
2023-03-21T02:49:42.005Z,53.33
2023-03-21T02:50:48.636Z,54.50
2023-03-21T02:51:51.652Z,55.00
2023-03-21T02:52:54.791Z,55.50
2023-03-21T02:54:29.965Z,57.33
2023-03-21T02:55:36.196Z,59.00
2023-03-21T02:56:39.381Z,59.00
2023-03-21T02:57:46.725Z,59.00
2023-03-21T02:58:49.332Z,59.00
2023-03-21T02:59:55.738Z,59.00
2023-03-21T03:01:00.032Z,59.00
2023-03-21T03:02:05.343Z,59.00
2023-03-21T03:03:10.464Z,58.00
2023-03-21T03:04:20.902Z,58.00
2023-03-21T03:05:28.564Z,59.00
2023-03-21T03:06:52.047Z,58.00
2023-03-21T03:08:36.178Z,58.00
2023-03-21T03:09:47.209Z,57.33
2023-03-21T03:11:14.942Z,55.50
2023-03-21T03:12:25.565Z,52.83
2023-03-21T03:13:27.040Z,51.50
2023-03-21T03:15:02.969Z,51.00
2023-03-21T03:16:31.880Z,56.00
2023-03-21T03:18:09.776Z,63.00
2023-03-21T03:19:22.749Z,61.50
2023-03-21T03:20:49.702Z,60.00
2023-03-21T03:22:03.870Z,59.33
2023-03-21T03:23:20.891Z,58.00
2023-03-21T03:24:29.801Z,58.00
2023-03-21T03:25:59.073Z,58.17
2023-03-21T03:27:10.356Z,59.00
2023-03-21T03:28:15.021Z,58.17
2023-03-21T03:29:20.502Z,57.67
2023-03-21T03:30:29.641Z,57.00
2023-03-21T03:31:40.819Z,57.00
2023-03-21T03:32:51.177Z,56.83
2023-03-21T03:33:57.884Z,56.00
2023-03-21T03:34:59.550Z,56.83
2023-03-21T03:36:06.492Z,57.17
2023-03-21T03:37:14.140Z,59.67
2023-03-21T03:38:18.588Z,62.50
2023-03-21T03:39:20.207Z,63.83
2023-03-21T03:40:40.056Z,62.00
2023-03-21T03:42:12.615Z,57.33
2023-03-21T03:43:31.681Z,57.00
2023-03-21T03:44:35.261Z,56.17
2023-03-21T03:45:48.534Z,56.00
2023-03-21T03:46:56.356Z,57.00
2023-03-21T03:48:07.541Z,59.83
2023-03-21T03:49:18.015Z,75.17
2023-03-21T03:50:42.080Z,75.50
2023-03-21T03:52:04.677Z,72.50
2023-03-21T03:53:18.821Z,71.17
2023-03-21T03:54:29.626Z,68.83
2023-03-21T03:55:32.955Z,65.83
2023-03-21T03:56:34.734Z,65.00
2023-03-21T03:57:36.638Z,64.33
2023-03-21T03:58:45.731Z,64.00
2023-03-21T03:59:47.963Z,64.00
2023-03-21T04:00:49.578Z,63.33
2023-03-21T04:01:51.548Z,62.83
2023-03-21T04:02:53.279Z,61.67
2023-03-21T04:04:10.425Z,61.33
2023-03-21T04:05:14.317Z,63.33
2023-03-21T04:06:16.939Z,64.17
2023-03-21T04:07:20.297Z,65.00
2023-03-21T04:08:21.861Z,65.50
2023-03-21T04:09:34.037Z,66.17
2023-03-21T04:10:39.567Z,67.17
2023-03-21T04:11:41.160Z,68.00
2023-03-21T04:12:43.162Z,67.17
2023-03-21T04:13:44.800Z,67.00
2023-03-21T04:14:47.489Z,67.00
2023-03-21T04:15:49.468Z,67.00
2023-03-21T04:16:51.459Z,66.83
2023-03-21T04:17:53.141Z,66.00
2023-03-21T04:18:54.807Z,65.33
2023-03-21T04:20:05.507Z,64.17
2023-03-21T04:21:12.648Z,62.17
2023-03-21T04:22:14.454Z,60.33
2023-03-21T04:23:16.029Z,59.00
2023-03-21T04:24:17.625Z,59.00
2023-03-21T04:25:32.326Z,59.00
2023-03-21T04:26:34.818Z,58.50
2023-03-21T04:27:36.552Z,59.00
2023-03-21T04:28:38.211Z,59.83
2023-03-21T04:29:39.886Z,61.00
2023-03-21T04:30:41.688Z,61.00
2023-03-21T04:31:46.713Z,61.00
2023-03-21T04:32:48.260Z,61.00
2023-03-21T04:33:49.782Z,61.00
2023-03-21T04:34:51.705Z,61.00
2023-03-21T04:35:53.608Z,65.33
2023-03-21T04:36:55.887Z,82.00
2023-03-21T04:37:57.457Z,87.33
2023-03-21T04:38:59.229Z,81.83
2023-03-21T04:40:01.886Z,80.17
2023-03-21T04:41:03.764Z,79.33
2023-03-21T04:42:05.364Z,78.50
2023-03-21T04:43:07.139Z,77.67
2023-03-21T04:44:09.417Z,77.00
2023-03-21T04:45:11.295Z,76.33
2023-03-21T04:46:13.386Z,73.67
2023-03-21T04:47:16.358Z,67.50
2023-03-21T04:48:18.148Z,61.67
2023-03-21T04:49:19.922Z,55.00
2023-03-21T04:50:21.484Z,53.33
2023-03-21T04:51:23.096Z,52.33
2023-03-21T04:52:25.474Z,51.67
2023-03-21T04:53:27.113Z,51.00
2023-03-21T04:54:28.916Z,50.67
2023-03-21T04:55:30.477Z,49.00
2023-03-21T04:56:32.192Z,49.17
2023-03-21T04:57:33.729Z,48.83
2023-03-21T04:58:35.255Z,48.17
2023-03-21T04:59:36.981Z,48.50
2023-03-21T05:00:38.589Z,50.33
2023-03-21T05:01:40.133Z,54.00
2023-03-21T05:02:41.852Z,58.83
2023-03-21T05:03:43.470Z,70.00
2023-03-21T05:04:45.165Z,78.33
2023-03-21T05:05:48.055Z,78.17
2023-03-21T05:06:49.593Z,75.33
2023-03-21T05:07:51.172Z,75.83
2023-03-21T05:08:52.755Z,97.83
2023-03-21T05:09:54.634Z,125.17
2023-03-21T05:10:56.310Z,140.33
2023-03-21T05:11:57.904Z,138.50
2023-03-21T05:12:59.485Z,128.00
2023-03-21T05:14:01.100Z,117.00
2023-03-21T05:15:02.914Z,110.17
2023-03-21T05:16:04.820Z,108.50
2023-03-21T05:17:06.422Z,123.17
2023-03-21T05:18:07.989Z,135.83
2023-03-21T05:19:10.224Z,130.00
2023-03-21T05:20:12.092Z,134.50
2023-03-21T05:21:13.660Z,149.17
2023-03-21T05:22:15.209Z,144.17
2023-03-21T05:23:16.801Z,130.17
2023-03-21T05:24:22.199Z,110.67
2023-03-21T05:25:24.049Z,106.17
2023-03-21T05:26:25.865Z,116.83
2023-03-21T05:27:27.437Z,136.00
2023-03-21T05:28:28.961Z,141.00
2023-03-21T05:29:32.023Z,139.17
2023-03-21T05:30:33.757Z,136.50
2023-03-21T05:31:35.677Z,126.83
2023-03-21T05:32:37.370Z,108.67
2023-03-21T05:33:38.920Z,102.83
2023-03-21T05:34:40.517Z,96.17
2023-03-21T05:35:42.272Z,94.00
2023-03-21T05:36:43.879Z,89.33
2023-03-21T05:37:45.447Z,83.50
2023-03-21T05:38:47.090Z,81.17
2023-03-21T05:39:48.669Z,81.83
2023-03-21T05:40:51.397Z,83.17
2023-03-21T05:42:54.616Z,80.17
2023-03-21T05:43:56.182Z,79.00
2023-03-21T05:44:58.004Z,75.17
2023-03-21T05:45:59.748Z,73.33
2023-03-21T05:47:01.353Z,69.50
2023-03-21T05:48:03.029Z,66.17
2023-03-21T05:49:04.619Z,66.33
2023-03-21T05:50:06.887Z,69.83
2023-03-21T05:51:08.693Z,75.00
2023-03-21T05:52:10.680Z,93.33
2023-03-21T05:53:12.504Z,104.33
2023-03-21T05:54:14.181Z,103.67
2023-03-21T05:55:15.796Z,101.00
2023-03-21T05:56:17.805Z,99.83
2023-03-21T05:57:19.436Z,98.33
2023-03-21T05:58:20.998Z,95.83
2023-03-21T05:59:22.590Z,93.67
2023-03-21T06:00:24.495Z,93.00
2023-03-21T06:01:26.238Z,93.00
2023-03-21T06:02:28.217Z,92.83
2023-03-21T06:03:29.917Z,89.17
2023-03-21T06:04:31.581Z,86.00
2023-03-21T06:05:33.150Z,83.83
2023-03-21T06:06:34.865Z,83.00
2023-03-21T06:07:36.901Z,84.00
2023-03-21T06:08:38.542Z,91.17
2023-03-21T06:09:40.085Z,108.83
2023-03-21T06:10:41.621Z,125.00
2023-03-21T06:11:48.011Z,126.83
2023-03-21T06:12:49.573Z,127.00
2023-03-21T06:13:51.332Z,128.50
2023-03-21T06:14:52.928Z,129.67
2023-03-21T06:15:54.505Z,131.50
2023-03-21T06:16:56.244Z,128.17
2023-03-21T06:17:57.841Z,124.00
2023-03-21T06:18:59.445Z,114.50
2023-03-21T06:20:02.115Z,105.50
2023-03-21T06:21:03.793Z,109.83
2023-03-21T06:22:05.421Z,134.67
2023-03-21T06:23:07.266Z,160.33
2023-03-21T06:24:09.669Z,179.83
2023-03-21T06:25:11.388Z,177.83
2023-03-21T06:26:13.788Z,171.67
2023-03-21T06:27:15.732Z,173.50
2023-03-21T06:28:17.401Z,175.67
2023-03-21T06:29:18.974Z,161.17
2023-03-21T06:30:20.918Z,135.33
2023-03-21T06:31:22.638Z,112.00
2023-03-21T06:32:25.045Z,99.83
2023-03-21T06:33:26.648Z,96.33
2023-03-21T06:34:28.183Z,86.50
2023-03-21T06:35:29.779Z,152.50
2023-03-21T06:36:31.361Z,188.33
2023-03-21T06:37:33.129Z,153.67
2023-03-21T06:38:34.725Z,130.33
2023-03-21T06:39:36.504Z,100.00
2023-03-21T06:40:38.701Z,92.00
2023-03-21T06:41:40.489Z,85.33
2023-03-21T06:42:42.206Z,82.33
2023-03-21T06:43:44.572Z,84.83
2023-03-21T06:44:46.113Z,88.67
2023-03-21T06:45:47.691Z,88.50
2023-03-21T06:46:49.407Z,81.67
2023-03-21T06:47:51.138Z,89.33
2023-03-21T06:48:52.753Z,92.67
2023-03-21T06:49:54.325Z,99.17
2023-03-21T06:50:55.866Z,117.83
2023-03-21T06:51:57.488Z,128.50
2023-03-21T06:52:59.570Z,134.83
2023-03-21T06:54:01.203Z,136.17
2023-03-21T06:55:02.993Z,133.33
2023-03-21T06:56:04.850Z,136.33
2023-03-21T06:57:07.497Z,142.67
2023-03-21T06:58:09.086Z,153.17
2023-03-21T06:59:10.846Z,161.83
2023-03-21T07:00:12.987Z,164.83
2023-03-21T07:01:14.691Z,150.33
2023-03-21T07:02:16.500Z,147.50
2023-03-21T07:03:20.714Z,147.67
2023-03-21T07:04:22.277Z,148.67
2023-03-21T07:05:24.256Z,145.67
2023-03-21T07:06:26.170Z,138.83
2023-03-21T07:07:27.740Z,129.33
2023-03-21T07:08:29.505Z,127.17
2023-03-21T07:09:31.112Z,121.67
2023-03-21T07:10:32.802Z,114.17
2023-03-21T07:11:36.988Z,100.33
2023-03-21T07:12:38.535Z,89.83
2023-03-21T07:13:40.251Z,92.00
2023-03-21T07:14:41.875Z,91.83
2023-03-21T07:15:43.527Z,98.33
2023-03-21T07:16:45.217Z,102.67
2023-03-21T07:17:46.854Z,104.50
2023-03-21T07:18:48.741Z,105.67
2023-03-21T07:19:50.312Z,107.50
2023-03-21T07:20:52.161Z,120.67
2023-03-21T07:21:53.778Z,140.67
2023-03-21T07:22:55.406Z,148.67
2023-03-21T07:23:57.230Z,149.67
2023-03-21T07:25:04.653Z,144.00
2023-03-21T07:26:07.283Z,139.50
2023-03-21T07:27:08.849Z,135.00
2023-03-21T07:28:10.409Z,126.00
2023-03-21T07:29:12.055Z,102.33
2023-03-21T07:30:14.607Z,93.83
2023-03-21T07:31:17.617Z,94.50
2023-03-21T07:32:19.209Z,88.00
2023-03-21T07:33:21.332Z,87.67
2023-03-21T07:34:22.952Z,85.50
2023-03-21T07:35:24.549Z,82.33
2023-03-21T07:36:26.183Z,90.17
2023-03-21T07:37:27.856Z,90.83
2023-03-21T07:38:29.449Z,88.17
2023-03-21T07:39:31.209Z,89.00
2023-03-21T07:40:33.613Z,86.17
2023-03-21T07:41:35.280Z,86.83
2023-03-21T07:42:38.419Z,87.50
2023-03-21T07:43:39.987Z,88.33
2023-03-21T07:44:41.593Z,88.83
2023-03-21T07:45:44.015Z,88.33
2023-03-21T07:46:45.615Z,89.00
2023-03-21T07:47:48.398Z,90.50
2023-03-21T07:48:52.307Z,96.83
2023-03-21T07:49:54.024Z,94.33
2023-03-21T07:50:55.902Z,91.67
2023-03-21T07:51:57.514Z,89.83
2023-03-21T07:52:59.036Z,81.50
2023-03-21T07:54:00.593Z,79.50
2023-03-21T07:55:02.341Z,77.17
2023-03-21T07:56:04.190Z,76.33
2023-03-21T07:57:05.777Z,78.17
2023-03-21T07:58:07.411Z,79.00
2023-03-21T07:59:08.981Z,79.83
2023-03-21T08:00:11.287Z,80.83
2023-03-21T08:01:12.890Z,84.83
2023-03-21T08:02:16.526Z,92.17
2023-03-21T08:03:18.175Z,97.50
2023-03-21T08:04:19.928Z,98.33
2023-03-21T08:05:29.780Z,98.50
2023-03-21T08:06:31.309Z,98.33
2023-03-21T08:07:32.901Z,96.83
2023-03-21T08:08:34.449Z,95.00
2023-03-21T08:09:36.845Z,95.00
2023-03-21T08:10:38.561Z,94.33
2023-03-21T08:11:40.305Z,94.00
2023-03-21T08:12:41.975Z,96.83
2023-03-21T08:13:43.542Z,107.00
2023-03-21T08:14:45.081Z,115.33
2023-03-21T08:15:46.838Z,119.67
2023-03-21T08:16:48.404Z,119.67
2023-03-21T08:17:50.240Z,114.17
2023-03-21T08:18:51.830Z,103.33
2023-03-21T08:19:53.429Z,98.83
2023-03-21T08:20:57.157Z,99.17
2023-03-21T08:21:58.742Z,111.50
2023-03-21T08:23:00.305Z,117.17
2023-03-21T08:24:01.875Z,117.00
2023-03-21T08:25:06.115Z,116.50
2023-03-21T08:26:07.927Z,115.67
2023-03-21T08:27:09.493Z,115.00
2023-03-21T08:28:11.045Z,115.67
2023-03-21T08:29:13.722Z,117.17
2023-03-21T08:30:17.687Z,114.00
2023-03-21T08:31:19.650Z,102.50
2023-03-21T08:32:21.431Z,94.67
2023-03-21T08:33:23.096Z,90.67
2023-03-21T08:34:24.726Z,90.17
2023-03-21T08:35:26.643Z,91.67
2023-03-21T08:36:28.349Z,92.83
2023-03-21T08:37:30.037Z,92.67
2023-03-21T08:38:31.871Z,96.83
2023-03-21T08:39:33.474Z,98.17
2023-03-21T08:40:35.773Z,97.50
2023-03-21T08:41:38.152Z,97.00
2023-03-21T08:42:40.907Z,97.83
2023-03-21T08:43:42.621Z,96.33
2023-03-21T08:44:44.202Z,86.67
2023-03-21T08:45:45.877Z,77.83
2023-03-21T08:46:47.476Z,76.67
2023-03-21T08:47:49.078Z,84.17
2023-03-21T08:48:50.799Z,111.00
2023-03-21T08:49:52.421Z,119.67
2023-03-21T08:50:53.972Z,112.33
2023-03-21T08:51:56.393Z,110.83
2023-03-21T08:52:57.965Z,108.17
2023-03-21T08:53:59.620Z,105.17
2023-03-21T08:55:01.425Z,105.17
2023-03-21T08:56:03.024Z,117.67
2023-03-21T08:57:04.640Z,115.17
2023-03-21T08:58:06.495Z,114.67
2023-03-21T08:59:08.045Z,114.67
2023-03-21T09:00:12.759Z,112.67
2023-03-21T09:01:14.304Z,113.00
2023-03-21T09:02:17.741Z,112.67
2023-03-21T09:03:20.260Z,109.17
2023-03-21T09:04:21.794Z,94.67
2023-03-21T09:05:23.419Z,88.00
2023-03-21T09:06:27.801Z,86.67
2023-03-21T09:07:29.457Z,86.83
2023-03-21T09:08:31.007Z,89.17
2023-03-21T09:09:32.674Z,92.00
2023-03-21T09:10:34.289Z,94.67
2023-03-21T09:11:35.832Z,95.00
2023-03-21T09:12:37.824Z,95.00
2023-03-21T09:13:39.341Z,94.33
2023-03-21T09:14:40.898Z,94.00
2023-03-21T09:15:42.499Z,103.67
2023-03-21T09:16:44.049Z,116.17
2023-03-21T09:17:45.897Z,121.33
2023-03-21T09:18:47.554Z,116.17
2023-03-21T09:19:49.146Z,117.33
2023-03-21T09:20:50.676Z,118.83
2023-03-21T09:21:52.294Z,115.83
2023-03-21T09:22:54.124Z,106.50
2023-03-21T09:23:55.740Z,103.33
2023-03-21T09:24:57.294Z,104.17
2023-03-21T09:25:58.832Z,102.83
2023-03-21T09:27:00.396Z,93.83
2023-03-21T09:28:02.821Z,88.00
2023-03-21T09:29:04.835Z,87.17
2023-03-21T09:30:07.339Z,86.17
2023-03-21T09:31:09.896Z,82.67
2023-03-21T09:32:11.580Z,81.67
2023-03-21T09:33:13.311Z,83.33
2023-03-21T09:34:15.136Z,84.50
2023-03-21T09:35:18.056Z,85.67
2023-03-21T09:36:20.087Z,91.50
2023-03-21T09:37:21.868Z,96.00
2023-03-21T09:38:23.712Z,96.33
2023-03-21T09:39:25.328Z,96.00
2023-03-21T09:40:37.068Z,95.33
2023-03-21T09:42:03.004Z,95.00
2023-03-21T09:43:27.668Z,143.50
2023-03-21T09:44:32.252Z,435.83
2023-03-21T09:45:46.976Z,301.33
2023-03-21T09:46:54.907Z,166.33
2023-03-21T09:47:57.267Z,114.33
2023-03-21T09:49:10.583Z,105.67
2023-03-21T09:50:37.077Z,99.33
2023-03-21T09:51:49.737Z,94.00
2023-03-21T09:53:01.774Z,93.33
2023-03-21T09:54:18.889Z,88.83
2023-03-21T09:55:23.949Z,87.50
2023-03-21T09:56:25.665Z,103.83
2023-03-21T09:57:37.963Z,96.67
2023-03-21T09:58:51.581Z,89.83
2023-03-21T09:59:56.252Z,86.33
2023-03-21T10:01:09.628Z,85.83
2023-03-21T10:02:35.755Z,93.00
2023-03-21T10:03:37.933Z,92.67
2023-03-21T10:04:39.568Z,87.67
2023-03-21T10:05:42.631Z,86.00
2023-03-21T10:06:51.377Z,87.33
2023-03-21T10:08:13.736Z,86.67
2023-03-21T10:09:19.261Z,85.50
2023-03-21T10:10:35.545Z,89.83
2023-03-21T10:11:44.748Z,93.83
2023-03-21T10:12:48.701Z,94.83
2023-03-21T10:13:59.467Z,93.83
2023-03-21T10:15:02.364Z,85.67
2023-03-21T10:16:17.368Z,82.67
2023-03-21T10:17:33.924Z,81.83
2023-03-21T10:18:37.237Z,78.33
2023-03-21T10:19:38.823Z,73.83
2023-03-21T10:20:42.860Z,75.50
2023-03-21T10:22:00.635Z,71.33
2023-03-21T10:23:07.803Z,64.00
2023-03-21T10:24:19.327Z,66.83
2023-03-21T10:25:34.410Z,72.67
2023-03-21T10:26:35.961Z,74.67
2023-03-21T10:27:37.788Z,73.33
2023-03-21T10:28:52.506Z,67.83
2023-03-21T10:29:54.664Z,66.67
2023-03-21T10:31:00.781Z,80.67
2023-03-21T10:32:02.980Z,93.00
2023-03-21T10:33:08.626Z,102.00
2023-03-21T10:34:18.823Z,97.83
2023-03-21T10:35:21.239Z,89.00
2023-03-21T10:36:29.525Z,78.33
2023-03-21T10:37:31.770Z,72.50
2023-03-21T10:38:35.205Z,67.00
2023-03-21T10:39:42.979Z,69.17
2023-03-21T10:40:44.778Z,197.67
2023-03-21T10:41:46.522Z,260.67
2023-03-21T10:42:48.093Z,360.17
2023-03-21T10:44:09.624Z,187.50
2023-03-21T10:45:17.848Z,102.83
2023-03-21T10:46:21.530Z,89.17
2023-03-21T10:47:28.922Z,84.17
2023-03-21T10:48:36.372Z,89.33
2023-03-21T10:50:02.136Z,105.83
2023-03-21T10:51:00.907Z,79.83
2023-03-21T10:52:07.266Z,79.83
2023-03-21T10:53:38.756Z,94.50
2023-03-21T10:54:40.466Z,96.17
2023-03-21T10:55:43.078Z,92.00
2023-03-21T10:57:21.189Z,85.50
2023-03-21T10:58:31.267Z,86.50
2023-03-21T10:59:45.146Z,83.33
2023-03-21T11:00:47.902Z,82.33
2023-03-21T11:01:52.649Z,78.67
2023-03-21T11:02:54.605Z,79.00
2023-03-21T11:04:14.646Z,75.00
2023-03-21T11:05:34.982Z,76.33
2023-03-21T11:06:40.721Z,72.00
2023-03-21T11:07:42.622Z,73.67
2023-03-21T11:08:48.979Z,75.50
2023-03-21T11:09:55.750Z,78.50
2023-03-21T11:11:02.647Z,88.00
2023-03-21T11:12:11.448Z,92.17
2023-03-21T11:13:32.992Z,89.33
2023-03-21T11:14:40.320Z,96.67
2023-03-21T11:15:44.802Z,98.00
2023-03-21T11:16:46.489Z,96.67
2023-03-21T11:17:48.071Z,95.50
2023-03-21T11:18:51.942Z,94.67
2023-03-21T11:20:06.562Z,95.83
2023-03-21T11:21:12.200Z,96.00
2023-03-21T11:22:15.589Z,95.17
2023-03-21T11:23:20.429Z,93.17
2023-03-21T11:24:22.479Z,92.00
2023-03-21T11:25:39.361Z,92.00
2023-03-21T11:26:44.309Z,91.83
2023-03-21T11:27:54.660Z,90.67
2023-03-21T11:28:57.077Z,89.00
2023-03-21T11:30:01.854Z,89.00
2023-03-21T11:31:05.803Z,88.17
2023-03-21T12:30:43.974Z,61.33
2023-03-21T12:32:18.780Z,62.00
2023-03-21T12:33:20.291Z,62.17
2023-03-21T12:34:49.882Z,60.33
2023-03-21T12:36:03.528Z,61.00
2023-03-21T12:37:31.443Z,60.00
2023-03-21T12:38:42.110Z,60.00
2023-03-21T12:39:47.782Z,60.00
2023-03-21T12:40:55.237Z,59.17
2023-03-21T12:42:50.696Z,59.00
2023-03-21T12:44:15.344Z,60.00
2023-03-21T12:45:34.249Z,60.50
2023-03-21T12:47:01.124Z,61.00
2023-03-21T12:48:40.966Z,61.00
2023-03-21T12:50:05.880Z,61.67
2023-03-21T12:51:13.354Z,60.17
2023-03-21T12:52:23.812Z,59.00
2023-03-21T12:53:49.870Z,58.00
2023-03-21T12:55:26.985Z,58.00
2023-03-21T12:56:40.551Z,56.83
2023-03-21T12:57:58.113Z,56.00
2023-03-21T12:59:22.394Z,57.33
2023-03-21T13:00:27.737Z,58.33
2023-03-21T13:01:30.289Z,59.00
2023-03-21T13:02:37.990Z,59.00
2023-03-21T13:03:44.448Z,59.83
2023-03-21T13:05:04.554Z,62.50
2023-03-21T13:06:09.390Z,64.17
2023-03-21T13:07:17.329Z,65.33
2023-03-21T13:08:34.021Z,65.00
2023-03-21T13:09:38.497Z,64.00
2023-03-21T13:10:43.789Z,64.00
2023-03-21T13:11:47.100Z,63.67
2023-03-21T13:13:31.079Z,62.17
2023-03-21T13:14:44.249Z,61.33
2023-03-21T13:15:54.794Z,62.33
2023-03-21T13:17:04.510Z,64.33
2023-03-21T13:18:32.995Z,65.00
2023-03-21T13:19:47.572Z,65.00
2023-03-21T13:20:58.422Z,64.00
2023-03-21T13:22:27.705Z,63.17
2023-03-21T13:23:38.569Z,63.50
2023-03-21T13:24:57.222Z,73.00
2023-03-21T13:25:58.985Z,74.50
2023-03-21T13:27:07.049Z,72.67
2023-03-21T13:28:20.081Z,65.83
2023-03-21T13:29:27.430Z,60.67
2023-03-21T13:30:31.504Z,57.83
2023-03-21T13:31:48.902Z,57.50
2023-03-21T13:33:07.174Z,58.17
2023-03-21T13:34:09.790Z,59.50
2023-03-21T13:35:33.134Z,64.00
2023-03-21T13:36:35.909Z,71.17
2023-03-21T13:37:42.152Z,74.33
2023-03-21T13:38:51.026Z,74.50
2023-03-21T13:39:52.617Z,75.33
2023-03-21T13:41:01.330Z,75.83
2023-03-21T13:42:05.634Z,75.00
2023-03-21T13:43:29.745Z,74.50
2023-03-21T13:44:50.371Z,77.67
2023-03-21T13:45:53.736Z,76.67
2023-03-21T13:47:02.841Z,74.33
2023-03-21T13:48:25.223Z,72.33
2023-03-21T13:49:36.046Z,71.50
2023-03-21T13:51:00.938Z,75.50
2023-03-21T13:52:11.833Z,73.67
2023-03-21T13:53:13.366Z,69.00
2023-03-21T13:54:17.320Z,68.67
2023-03-21T13:55:20.552Z,71.33
2023-03-21T13:56:23.631Z,90.67
2023-03-21T13:57:27.980Z,150.83
2023-03-21T13:58:37.658Z,138.50
2023-03-21T13:59:44.145Z,111.50
2023-03-21T14:01:20.046Z,119.83
2023-03-21T14:02:33.969Z,107.50
2023-03-21T14:03:35.679Z,97.50
2023-03-21T14:04:42.838Z,97.33
2023-03-21T14:05:56.941Z,118.00
2023-03-21T14:07:05.110Z,109.83
2023-03-21T14:08:17.229Z,127.17
2023-03-21T14:09:30.121Z,153.33
2023-03-21T14:10:42.146Z,132.00
2023-03-21T14:11:46.788Z,106.00
2023-03-21T14:12:49.963Z,85.33
2023-03-21T14:13:53.996Z,97.83
2023-03-21T14:15:18.156Z,265.33
2023-03-21T14:16:22.543Z,277.17
2023-03-21T14:17:27.675Z,176.50
2023-03-21T14:18:52.468Z,161.00
2023-03-21T14:19:56.151Z,156.83
2023-03-21T14:20:58.805Z,176.00
2023-03-21T14:22:00.365Z,169.33
2023-03-21T14:23:05.587Z,131.67
2023-03-21T14:24:20.442Z,137.00
2023-03-21T14:25:29.182Z,123.00
2023-03-21T14:26:37.750Z,106.17
2023-03-21T14:27:44.497Z,103.00
2023-03-21T14:28:51.261Z,93.17
2023-03-21T14:29:53.199Z,90.33
2023-03-21T14:30:58.769Z,86.83
2023-03-21T14:32:01.586Z,95.00
2023-03-21T14:33:16.913Z,122.33
2023-03-21T14:34:20.095Z,149.17
2023-03-21T14:35:22.347Z,181.33
2023-03-21T14:36:30.341Z,270.67
2023-03-21T14:37:43.469Z,186.33
2023-03-21T14:38:55.246Z,155.67
2023-03-21T14:40:00.405Z,132.50
2023-03-21T14:41:03.329Z,132.00
2023-03-21T14:42:07.629Z,215.67
2023-03-21T14:43:11.955Z,229.33
2023-03-21T14:44:18.438Z,255.00
2023-03-21T14:45:26.840Z,224.50
2023-03-21T14:46:28.513Z,191.17
2023-03-21T14:47:30.509Z,177.33
2023-03-21T14:48:34.543Z,154.67
2023-03-21T14:49:38.052Z,154.00
2023-03-21T14:50:55.453Z,176.83
2023-03-21T14:52:01.050Z,161.33
2023-03-21T14:53:03.230Z,152.67
2023-03-21T14:54:05.989Z,155.17
2023-03-21T14:55:16.671Z,152.67
2023-03-21T14:56:23.521Z,148.00
2023-03-21T14:57:30.512Z,137.00
2023-03-21T14:58:34.155Z,128.00
2023-03-21T14:59:39.162Z,126.50
2023-03-21T15:00:40.838Z,125.67
2023-03-21T15:01:44.520Z,123.67
2023-03-21T15:02:46.289Z,117.17
2023-03-21T15:03:51.444Z,119.17
2023-03-21T15:04:58.174Z,124.00
2023-03-21T15:06:01.291Z,123.50
2023-03-21T15:07:03.375Z,120.17
2023-03-21T15:08:12.811Z,117.33
2023-03-21T15:09:19.078Z,118.17
2023-03-21T15:10:21.091Z,233.00
2023-03-21T15:11:34.917Z,249.67
2023-03-21T15:12:36.533Z,205.00
2023-03-21T15:13:49.800Z,297.83